sensor_id;sensor_type;location;lat;lon;timestamp;pressure;altitude;pressure_sealevel;temperature;humidity
77092;BME280;66032;48.252;11.638;2023-05-02T00:01:20;96052.16;;;9.82;91.57
77092;BME280;66032;48.252;11.638;2023-05-02T00:03:48;96043.53;;;9.80;91.87
77092;BME280;66032;48.252;11.638;2023-05-02T00:06:15;96043.53;;;9.80;91.83
77092;BME280;66032;48.252;11.638;2023-05-02T00:08:43;96049.00;;;9.79;92.23
77092;BME280;66032;48.252;11.638;2023-05-02T00:11:10;96046.78;;;9.74;92.44
77092;BME280;66032;48.252;11.638;2023-05-02T00:13:37;96043.59;;;9.71;92.46
77092;BME280;66032;48.252;11.638;2023-05-02T00:16:05;96048.88;;;9.71;92.51
77092;BME280;66032;48.252;11.638;2023-05-02T00:18:32;96039.31;;;9.70;92.52
77092;BME280;66032;48.252;11.638;2023-05-02T00:21:00;96041.25;;;9.68;92.48
77092;BME280;66032;48.252;11.638;2023-05-02T00:23:27;96044.34;;;9.63;92.54
77092;BME280;66032;48.252;11.638;2023-05-02T00:25:54;96046.31;;;9.61;92.39
77092;BME280;66032;48.252;11.638;2023-05-02T00:28:21;96038.13;;;9.55;92.22
77092;BME280;66032;48.252;11.638;2023-05-02T00:30:49;96042.06;;;9.50;92.63
77092;BME280;66032;48.252;11.638;2023-05-02T00:33:16;96038.88;;;9.47;92.85
77092;BME280;66032;48.252;11.638;2023-05-02T00:35:44;96037.66;;;9.41;93.12
77092;BME280;66032;48.252;11.638;2023-05-02T00:38:11;96034.47;;;9.38;92.72
77092;BME280;66032;48.252;11.638;2023-05-02T00:40:45;96035.06;;;9.32;93.05
77092;BME280;66032;48.252;11.638;2023-05-02T00:43:14;96033.84;;;9.26;93.06
77092;BME280;66032;48.252;11.638;2023-05-02T00:45:43;96036.25;;;9.20;93.16
77092;BME280;66032;48.252;11.638;2023-05-02T00:48:11;96031.53;;;9.13;93.15
77092;BME280;66032;48.252;11.638;2023-05-02T00:50:41;96033.09;;;9.06;93.41
77092;BME280;66032;48.252;11.638;2023-05-02T00:53:09;96040.78;;;9.00;93.32
77092;BME280;66032;48.252;11.638;2023-05-02T00:55:37;96042.22;;;8.94;93.24
77092;BME280;66032;48.252;11.638;2023-05-02T00:58:08;96045.41;;;8.88;94.02
77092;BME280;66032;48.252;11.638;2023-05-02T01:03:31;96048.41;;;8.75;94.08
77092;BME280;66032;48.252;11.638;2023-05-02T01:09:01;96052.72;;;8.67;94.41
77092;BME280;66032;48.252;11.638;2023-05-02T01:11:51;96044.09;;;8.65;94.66
77092;BME280;66032;48.252;11.638;2023-05-02T01:14:20;96051.50;;;8.61;95.19
77092;BME280;66032;48.252;11.638;2023-05-02T01:16:49;96040.25;;;8.59;95.12
77092;BME280;66032;48.252;11.638;2023-05-02T01:19:24;96038.72;;;8.57;95.26
77092;BME280;66032;48.252;11.638;2023-05-02T01:21:55;96044.81;;;8.57;95.36
77092;BME280;66032;48.252;11.638;2023-05-02T01:24:31;96053.59;;;8.58;95.44
77092;BME280;66032;48.252;11.638;2023-05-02T01:27:39;96049.13;;;8.58;95.46
77092;BME280;66032;48.252;11.638;2023-05-02T01:30:10;96049.84;;;8.60;95.55
77092;BME280;66032;48.252;11.638;2023-05-02T01:32:40;96054.28;;;8.60;95.36
77092;BME280;66032;48.252;11.638;2023-05-02T01:35:10;96049.84;;;8.60;95.42
77092;BME280;66032;48.252;11.638;2023-05-02T01:37:42;96059.25;;;8.63;95.33
77092;BME280;66032;48.252;11.638;2023-05-02T01:40:14;96056.78;;;8.61;95.27
77092;BME280;66032;48.252;11.638;2023-05-02T01:42:46;96052.19;;;8.63;95.31
77092;BME280;66032;48.252;11.638;2023-05-02T01:45:14;96055.00;;;8.62;95.08
77092;BME280;66032;48.252;11.638;2023-05-02T01:47:43;96057.31;;;8.65;95.19
77092;BME280;66032;48.252;11.638;2023-05-02T01:50:13;96055.25;;;8.68;95.18
77092;BME280;66032;48.252;11.638;2023-05-02T01:52:44;96055.09;;;8.70;94.81
77092;BME280;66032;48.252;11.638;2023-05-02T01:55:14;96056.06;;;8.69;94.80
77092;BME280;66032;48.252;11.638;2023-05-02T01:57:45;96058.16;;;8.65;94.62
77092;BME280;66032;48.252;11.638;2023-05-02T02:00:16;96055.00;;;8.62;94.44
77092;BME280;66032;48.252;11.638;2023-05-02T02:02:45;96066.66;;;8.59;94.40
77092;BME280;66032;48.252;11.638;2023-05-02T02:05:15;96065.25;;;8.55;94.49
77092;BME280;66032;48.252;11.638;2023-05-02T02:07:43;96063.91;;;8.51;94.56
77092;BME280;66032;48.252;11.638;2023-05-02T02:10:11;96073.19;;;8.46;94.31
77092;BME280;66032;48.252;11.638;2023-05-02T02:12:50;96070.88;;;8.43;94.66
77092;BME280;66032;48.252;11.638;2023-05-02T02:15:28;96080.59;;;8.42;94.89
77092;BME280;66032;48.252;11.638;2023-05-02T02:18:01;96078.09;;;8.41;94.88
77092;BME280;66032;48.252;11.638;2023-05-02T02:20:32;96081.56;;;8.41;95.25
77092;BME280;66032;48.252;11.638;2023-05-02T02:23:04;96083.66;;;8.37;95.01
77092;BME280;66032;48.252;11.638;2023-05-02T02:25:34;96085.88;;;8.32;94.83
77092;BME280;66032;48.252;11.638;2023-05-02T02:28:03;96094.88;;;8.30;95.07
77092;BME280;66032;48.252;11.638;2023-05-02T02:30:30;96096.00;;;8.27;94.99
77092;BME280;66032;48.252;11.638;2023-05-02T02:32:57;96091.00;;;8.24;95.16
77092;BME280;66032;48.252;11.638;2023-05-02T02:35:30;96088.50;;;8.23;95.43
77092;BME280;66032;48.252;11.638;2023-05-02T02:40:59;96095.31;;;8.25;95.53
77092;BME280;66032;48.252;11.638;2023-05-02T02:46:46;96098.09;;;8.24;95.46
77092;BME280;66032;48.252;11.638;2023-05-02T02:52:23;96097.94;;;8.16;95.40
77092;BME280;66032;48.252;11.638;2023-05-02T02:54:59;96099.34;;;8.10;95.24
77092;BME280;66032;48.252;11.638;2023-05-02T03:02:34;96111.81;;;7.89;95.28
77092;BME280;66032;48.252;11.638;2023-05-02T03:05:04;96108.91;;;7.82;95.26
77092;BME280;66032;48.252;11.638;2023-05-02T03:07:33;96108.50;;;7.77;95.23
77092;BME280;66032;48.252;11.638;2023-05-02T03:10:04;96108.16;;;7.71;95.27
77092;BME280;66032;48.252;11.638;2023-05-02T03:12:34;96119.03;;;7.68;95.94
77092;BME280;66032;48.252;11.638;2023-05-02T03:15:13;96121.22;;;7.62;95.62
77092;BME280;66032;48.252;11.638;2023-05-02T03:17:46;96122.72;;;7.55;95.60
77092;BME280;66032;48.252;11.638;2023-05-02T03:20:13;96115.34;;;7.49;95.59
77092;BME280;66032;48.252;11.638;2023-05-02T03:22:40;96122.00;;;7.44;95.77
77092;BME280;66032;48.252;11.638;2023-05-02T03:25:08;96124.78;;;7.42;96.19
77092;BME280;66032;48.252;11.638;2023-05-02T03:27:40;96122.53;;;7.38;95.98
77092;BME280;66032;48.252;11.638;2023-05-02T03:30:10;96128.91;;;7.35;96.45
77092;BME280;66032;48.252;11.638;2023-05-02T03:32:37;96120.31;;;7.33;96.38
77092;BME280;66032;48.252;11.638;2023-05-02T03:35:05;96123.31;;;7.29;96.24
77092;BME280;66032;48.252;11.638;2023-05-02T03:37:38;96126.50;;;7.22;96.31
77092;BME280;66032;48.252;11.638;2023-05-02T03:40:06;96130.50;;;7.17;96.30
77092;BME280;66032;48.252;11.638;2023-05-02T03:42:34;96126.31;;;7.14;96.36
77092;BME280;66032;48.252;11.638;2023-05-02T03:45:16;96134.09;;;7.16;96.90
77092;BME280;66032;48.252;11.638;2023-05-02T03:47:46;96128.41;;;7.11;96.60
77092;BME280;66032;48.252;11.638;2023-05-02T03:50:13;96140.03;;;7.08;96.74
77092;BME280;66032;48.252;11.638;2023-05-02T03:52:45;96137.66;;;7.05;96.60
77092;BME280;66032;48.252;11.638;2023-05-02T03:55:14;96141.25;;;7.04;96.72
77092;BME280;66032;48.252;11.638;2023-05-02T03:57:41;96141.25;;;7.04;96.61
77092;BME280;66032;48.252;11.638;2023-05-02T04:00:12;96142.22;;;7.03;96.91
77092;BME280;66032;48.252;11.638;2023-05-02T04:02:45;96145.84;;;7.02;96.81
77092;BME280;66032;48.252;11.638;2023-05-02T04:05:18;96145.69;;;7.04;97.11
77092;BME280;66032;48.252;11.638;2023-05-02T04:07:47;96155.41;;;7.03;97.01
77092;BME280;66032;48.252;11.638;2023-05-02T04:10:14;96160.28;;;7.08;97.29
77092;BME280;66032;48.252;11.638;2023-05-02T04:12:52;96162.81;;;7.09;97.29
77092;BME280;66032;48.252;11.638;2023-05-02T04:15:20;96166.81;;;7.13;97.14
77092;BME280;66032;48.252;11.638;2023-05-02T04:17:49;96173.53;;;7.17;97.23
77092;BME280;66032;48.252;11.638;2023-05-02T04:20:18;96167.84;;;7.22;97.37
77092;BME280;66032;48.252;11.638;2023-05-02T04:22:49;96165.25;;;7.32;97.62
77092;BME280;66032;48.252;11.638;2023-05-02T04:25:17;96173.34;;;7.40;97.61
77092;BME280;66032;48.252;11.638;2023-05-02T04:27:45;96169.66;;;7.52;97.28
77092;BME280;66032;48.252;11.638;2023-05-02T04:30:15;96169.81;;;7.60;97.25
77092;BME280;66032;48.252;11.638;2023-05-02T04:32:50;96173.31;;;7.70;96.58
77092;BME280;66032;48.252;11.638;2023-05-02T04:35:19;96190.00;;;7.80;96.00
77092;BME280;66032;48.252;11.638;2023-05-02T04:37:46;96182.13;;;7.90;95.99
77092;BME280;66032;48.252;11.638;2023-05-02T04:40:15;96189.78;;;8.03;95.69
77092;BME280;66032;48.252;11.638;2023-05-02T04:42:46;96189.81;;;8.22;95.91
77092;BME280;66032;48.252;11.638;2023-05-02T04:45:20;96196.00;;;8.42;95.28
77092;BME280;66032;48.252;11.638;2023-05-02T04:47:48;96195.16;;;8.60;94.23
77092;BME280;66032;48.252;11.638;2023-05-02T04:50:16;96200.59;;;8.78;93.98
77092;BME280;66032;48.252;11.638;2023-05-02T04:52:43;96204.31;;;8.95;93.48
77092;BME280;66032;48.252;11.638;2023-05-02T04:55:11;96203.88;;;9.09;92.11
77092;BME280;66032;48.252;11.638;2023-05-02T04:57:39;96208.44;;;9.26;91.86
77092;BME280;66032;48.252;11.638;2023-05-02T05:00:10;96213.81;;;9.44;91.51
77092;BME280;66032;48.252;11.638;2023-05-02T05:02:38;96215.00;;;9.59;90.28
77092;BME280;66032;48.252;11.638;2023-05-02T05:05:07;96210.78;;;9.76;89.50
77092;BME280;66032;48.252;11.638;2023-05-02T05:07:35;96211.22;;;9.99;89.37
77092;BME280;66032;48.252;11.638;2023-05-02T05:10:02;96209.00;;;10.21;88.41
77092;BME280;66032;48.252;11.638;2023-05-02T05:12:37;96209.88;;;10.40;86.34
77092;BME280;66032;48.252;11.638;2023-05-02T05:15:05;96213.09;;;10.61;85.54
77092;BME280;66032;48.252;11.638;2023-05-02T05:17:33;96222.53;;;10.81;85.01
77092;BME280;66032;48.252;11.638;2023-05-02T05:20:02;96214.78;;;11.06;84.18
77092;BME280;66032;48.252;11.638;2023-05-02T05:22:30;96222.69;;;11.41;83.36
77092;BME280;66032;48.252;11.638;2023-05-02T05:24:58;96225.31;;;11.67;82.69
77092;BME280;66032;48.252;11.638;2023-05-02T05:27:29;96226.06;;;12.03;82.29
77092;BME280;66032;48.252;11.638;2023-05-02T05:29:56;96227.47;;;12.31;80.00
77092;BME280;66032;48.252;11.638;2023-05-02T05:32:24;96234.50;;;12.57;78.09
77092;BME280;66032;48.252;11.638;2023-05-02T05:34:52;96240.38;;;12.76;78.49
77092;BME280;66032;48.252;11.638;2023-05-02T05:37:22;96230.06;;;12.65;76.40
77092;BME280;66032;48.252;11.638;2023-05-02T05:39:50;96239.25;;;12.87;77.52
77092;BME280;66032;48.252;11.638;2023-05-02T05:42:17;96244.75;;;13.10;76.38
77092;BME280;66032;48.252;11.638;2023-05-02T05:44:48;96239.97;;;13.21;75.16
77092;BME280;66032;48.252;11.638;2023-05-02T05:47:19;96249.78;;;13.45;74.45
77092;BME280;66032;48.252;11.638;2023-05-02T05:49:55;96243.25;;;13.48;73.97
77092;BME280;66032;48.252;11.638;2023-05-02T05:52:27;96243.09;;;13.41;74.23
77092;BME280;66032;48.252;11.638;2023-05-02T05:54:55;96253.44;;;13.36;73.93
77092;BME280;66032;48.252;11.638;2023-05-02T05:57:24;96259.59;;;13.20;74.44
77092;BME280;66032;48.252;11.638;2023-05-02T05:59:53;96261.25;;;13.21;74.54
77092;BME280;66032;48.252;11.638;2023-05-02T06:02:21;96262.56;;;13.42;74.04
77092;BME280;66032;48.252;11.638;2023-05-02T06:04:49;96261.75;;;13.49;73.66
77092;BME280;66032;48.252;11.638;2023-05-02T06:07:20;96266.53;;;13.78;72.70
77092;BME280;66032;48.252;11.638;2023-05-02T06:09:47;96263.94;;;14.17;71.85
77092;BME280;66032;48.252;11.638;2023-05-02T06:12:15;96275.16;;;13.96;71.67
77092;BME280;66032;48.252;11.638;2023-05-02T06:14:44;96269.75;;;14.21;71.00
77092;BME280;66032;48.252;11.638;2023-05-02T06:17:12;96274.72;;;14.24;71.08
77092;BME280;66032;48.252;11.638;2023-05-02T06:19:40;96281.94;;;14.07;71.36
77092;BME280;66032;48.252;11.638;2023-05-02T06:22:11;96280.34;;;14.53;70.11
77092;BME280;66032;48.252;11.638;2023-05-02T06:24:38;96282.63;;;14.64;69.69
77092;BME280;66032;48.252;11.638;2023-05-02T06:27:05;96285.66;;;14.84;68.85
77092;BME280;66032;48.252;11.638;2023-05-02T06:29:33;96288.13;;;14.94;69.42
77092;BME280;66032;48.252;11.638;2023-05-02T06:32:00;96291.22;;;15.05;68.55
77092;BME280;66032;48.252;11.638;2023-05-02T06:34:31;96292.91;;;15.29;67.84
77092;BME280;66032;48.252;11.638;2023-05-02T06:36:59;96295.47;;;15.83;67.29
77092;BME280;66032;48.252;11.638;2023-05-02T06:39:26;96300.56;;;15.92;65.76
77092;BME280;66032;48.252;11.638;2023-05-02T06:41:57;96299.41;;;16.39;64.80
77092;BME280;66032;48.252;11.638;2023-05-02T06:44:25;96301.91;;;16.70;63.90
77092;BME280;66032;48.252;11.638;2023-05-02T06:46:53;96305.22;;;17.08;62.24
77092;BME280;66032;48.252;11.638;2023-05-02T06:49:22;96310.19;;;17.47;61.66
77092;BME280;66032;48.252;11.638;2023-05-02T06:51:49;96305.03;;;17.67;60.46
77092;BME280;66032;48.252;11.638;2023-05-02T06:54:16;96308.34;;;17.48;60.38
77092;BME280;66032;48.252;11.638;2023-05-02T06:56:43;96315.97;;;17.65;59.62
77092;BME280;66032;48.252;11.638;2023-05-02T06:59:11;96311.72;;;17.35;60.54
77092;BME280;66032;48.252;11.638;2023-05-02T07:01:39;96306.47;;;17.05;61.70
77092;BME280;66032;48.252;11.638;2023-05-02T07:04:06;96314.50;;;17.63;60.37
77092;BME280;66032;48.252;11.638;2023-05-02T07:06:34;96321.38;;;17.72;59.82
77092;BME280;66032;48.252;11.638;2023-05-02T07:09:01;96328.19;;;17.96;59.14
77092;BME280;66032;48.252;11.638;2023-05-02T07:11:29;96329.13;;;18.09;59.03
77092;BME280;66032;48.252;11.638;2023-05-02T07:13:56;96334.66;;;18.29;58.21
77092;BME280;66032;48.252;11.638;2023-05-02T07:16:24;96320.03;;;18.66;58.27
77092;BME280;66032;48.252;11.638;2023-05-02T07:18:51;96330.06;;;18.92;57.69
77092;BME280;66032;48.252;11.638;2023-05-02T07:21:18;96324.97;;;19.10;56.90
77092;BME280;66032;48.252;11.638;2023-05-02T07:23:46;96316.31;;;19.15;55.61
77092;BME280;66032;48.252;11.638;2023-05-02T07:26:13;96316.28;;;18.61;57.18
77092;BME280;66032;48.252;11.638;2023-05-02T07:28:41;96314.09;;;18.84;57.15
77092;BME280;66032;48.252;11.638;2023-05-02T07:31:09;96318.34;;;19.00;56.35
77092;BME280;66032;48.252;11.638;2023-05-02T07:33:36;96323.56;;;19.21;55.95
77092;BME280;66032;48.252;11.638;2023-05-02T07:36:03;96317.97;;;19.16;55.20
77092;BME280;66032;48.252;11.638;2023-05-02T07:38:31;96318.88;;;18.47;57.79
77092;BME280;66032;48.252;11.638;2023-05-02T07:40:59;96319.66;;;18.76;56.66
77092;BME280;66032;48.252;11.638;2023-05-02T07:43:26;96328.47;;;18.56;57.24
77092;BME280;66032;48.252;11.638;2023-05-02T07:45:54;96330.44;;;18.48;56.78
77092;BME280;66032;48.252;11.638;2023-05-02T07:48:22;96333.06;;;18.41;57.49
77092;BME280;66032;48.252;11.638;2023-05-02T07:50:53;96332.22;;;18.06;58.23
77092;BME280;66032;48.252;11.638;2023-05-02T07:53:20;96327.63;;;18.28;58.46
77092;BME280;66032;48.252;11.638;2023-05-02T07:55:48;96328.97;;;18.73;57.37
77092;BME280;66032;48.252;11.638;2023-05-02T07:58:15;96329.78;;;19.21;56.35
77092;BME280;66032;48.252;11.638;2023-05-02T08:00:42;96327.84;;;19.69;55.23
77092;BME280;66032;48.252;11.638;2023-05-02T08:03:10;96337.81;;;20.22;54.47
77092;BME280;66032;48.252;11.638;2023-05-02T08:05:37;96343.97;;;20.68;52.89
77092;BME280;66032;48.252;11.638;2023-05-02T08:08:04;96334.63;;;20.77;52.06
77092;BME280;66032;48.252;11.638;2023-05-02T08:10:32;96338.59;;;20.68;52.22
77092;BME280;66032;48.252;11.638;2023-05-02T08:12:59;96333.09;;;21.01;51.93
77092;BME280;66032;48.252;11.638;2023-05-02T08:15:27;96346.66;;;21.39;50.89
77092;BME280;66032;48.252;11.638;2023-05-02T08:17:54;96347.44;;;20.95;51.73
77092;BME280;66032;48.252;11.638;2023-05-02T08:20:21;96351.47;;;21.75;49.86
77092;BME280;66032;48.252;11.638;2023-05-02T08:22:49;96354.59;;;22.53;48.23
77092;BME280;66032;48.252;11.638;2023-05-02T08:25:17;96356.66;;;22.58;47.20
77092;BME280;66032;48.252;11.638;2023-05-02T08:27:44;96350.22;;;23.32;46.22
77092;BME280;66032;48.252;11.638;2023-05-02T08:30:13;96340.44;;;23.67;45.77
77092;BME280;66032;48.252;11.638;2023-05-02T08:32:40;96345.09;;;24.32;44.34
77092;BME280;66032;48.252;11.638;2023-05-02T08:35:07;96349.44;;;24.44;44.13
77092;BME280;66032;48.252;11.638;2023-05-02T08:37:35;96343.78;;;24.46;43.27
77092;BME280;66032;48.252;11.638;2023-05-02T08:40:03;96353.69;;;24.64;42.98
77092;BME280;66032;48.252;11.638;2023-05-02T08:42:32;96348.38;;;24.22;43.47
77092;BME280;66032;48.252;11.638;2023-05-02T08:45:01;96351.44;;;23.84;43.67
77092;BME280;66032;48.252;11.638;2023-05-02T08:47:29;96347.72;;;23.67;44.81
77092;BME280;66032;48.252;11.638;2023-05-02T08:49:58;96349.47;;;24.03;44.37
77092;BME280;66032;48.252;11.638;2023-05-02T08:52:26;96357.47;;;24.63;43.44
77092;BME280;66032;48.252;11.638;2023-05-02T08:54:55;96357.47;;;24.74;43.28
77092;BME280;66032;48.252;11.638;2023-05-02T08:57:22;96354.72;;;25.21;42.16
77092;BME280;66032;48.252;11.638;2023-05-02T08:59:50;96355.41;;;25.40;41.48
77092;BME280;66032;48.252;11.638;2023-05-02T09:02:49;96363.13;;;24.38;43.09
77092;BME280;66032;48.252;11.638;2023-05-02T09:05:19;96363.13;;;24.38;43.09
77092;BME280;66032;48.252;11.638;2023-05-02T09:07:50;96372.09;;;24.73;42.93
77092;BME280;66032;48.252;11.638;2023-05-02T09:10:18;96366.78;;;24.90;42.28
77092;BME280;66032;48.252;11.638;2023-05-02T09:12:47;96372.44;;;24.88;42.59
77092;BME280;66032;48.252;11.638;2023-05-02T09:15:15;96365.97;;;24.89;42.44
77092;BME280;66032;48.252;11.638;2023-05-02T09:17:47;96365.03;;;24.72;42.23
77092;BME280;66032;48.252;11.638;2023-05-02T09:20:15;96371.03;;;24.63;42.45
77092;BME280;66032;48.252;11.638;2023-05-02T09:22:50;96369.63;;;24.72;42.68
77092;BME280;66032;48.252;11.638;2023-05-02T09:25:21;96371.72;;;23.93;43.90
77092;BME280;66032;48.252;11.638;2023-05-02T09:27:50;96372.81;;;23.74;44.09
77092;BME280;66032;48.252;11.638;2023-05-02T09:30:22;96373.66;;;23.86;43.71
77092;BME280;66032;48.252;11.638;2023-05-02T09:32:50;96377.59;;;23.90;44.24
77092;BME280;66032;48.252;11.638;2023-05-02T09:35:18;96384.59;;;23.79;44.39
77092;BME280;66032;48.252;11.638;2023-05-02T09:37:54;96384.41;;;23.63;44.45
77092;BME280;66032;48.252;11.638;2023-05-02T09:40:23;96389.59;;;23.28;45.18
77092;BME280;66032;48.252;11.638;2023-05-02T09:42:51;96390.06;;;23.06;45.54
77092;BME280;66032;48.252;11.638;2023-05-02T09:45:23;96390.19;;;22.68;46.48
77092;BME280;66032;48.252;11.638;2023-05-02T09:47:51;96395.03;;;22.42;47.33
77092;BME280;66032;48.252;11.638;2023-05-02T09:50:35;96387.50;;;22.19;47.42
77092;BME280;66032;48.252;11.638;2023-05-02T09:53:06;96396.59;;;21.93;47.78
77092;BME280;66032;48.252;11.638;2023-05-02T09:55:34;96387.19;;;21.71;48.30
77092;BME280;66032;48.252;11.638;2023-05-02T09:58:02;96389.72;;;21.66;48.55
77092;BME280;66032;48.252;11.638;2023-05-02T10:00:43;96389.56;;;21.54;49.01
77092;BME280;66032;48.252;11.638;2023-05-02T10:03:14;96382.50;;;21.53;48.44
77092;BME280;66032;48.252;11.638;2023-05-02T10:05:43;96386.72;;;21.42;49.07
77092;BME280;66032;48.252;11.638;2023-05-02T10:08:12;96395.22;;;21.39;49.44
77092;BME280;66032;48.252;11.638;2023-05-02T10:10:44;96396.13;;;21.20;49.45
77092;BME280;66032;48.252;11.638;2023-05-02T10:13:12;96397.53;;;21.29;49.29
77092;BME280;66032;48.252;11.638;2023-05-02T10:15:43;96397.78;;;21.21;49.51
77092;BME280;66032;48.252;11.638;2023-05-02T10:18:12;96399.44;;;21.22;49.36
77092;BME280;66032;48.252;11.638;2023-05-02T10:20:49;96399.03;;;21.12;48.77
77092;BME280;66032;48.252;11.638;2023-05-02T10:23:21;96397.78;;;21.21;49.04
77092;BME280;66032;48.252;11.638;2023-05-02T10:25:51;96395.72;;;21.16;48.45
77092;BME280;66032;48.252;11.638;2023-05-02T10:28:19;96399.03;;;21.12;48.55
77092;BME280;66032;48.252;11.638;2023-05-02T10:30:47;96391.13;;;21.10;49.44
77092;BME280;66032;48.252;11.638;2023-05-02T10:33:16;96389.28;;;21.11;49.40
77092;BME280;66032;48.252;11.638;2023-05-02T10:35:45;96393.88;;;21.04;49.14
77092;BME280;66032;48.252;11.638;2023-05-02T10:38:16;96395.34;;;20.87;49.17
77092;BME280;66032;48.252;11.638;2023-05-02T10:43:33;96396.03;;;20.36;52.17
77092;BME280;66032;48.252;11.638;2023-05-02T10:46:01;96394.34;;;20.15;53.44
77092;BME280;66032;48.252;11.638;2023-05-02T10:48:32;96393.28;;;19.96;52.99
77092;BME280;66032;48.252;11.638;2023-05-02T10:51:00;96387.47;;;19.86;53.52
77092;BME280;66032;48.252;11.638;2023-05-02T10:53:33;96386.63;;;19.79;53.55
77092;BME280;66032;48.252;11.638;2023-05-02T10:58:45;96377.75;;;19.79;54.00
77092;BME280;66032;48.252;11.638;2023-05-02T11:04:06;96380.03;;;19.82;54.29
77092;BME280;66032;48.252;11.638;2023-05-02T11:06:36;96383.13;;;19.85;54.22
77092;BME280;66032;48.252;11.638;2023-05-02T11:11:44;96387.28;;;19.94;53.28
77092;BME280;66032;48.252;11.638;2023-05-02T11:17:09;96388.53;;;20.05;52.20
77092;BME280;66032;48.252;11.638;2023-05-02T11:24:45;96380.88;;;20.68;50.96
77092;BME280;66032;48.252;11.638;2023-05-02T11:30:03;96379.53;;;21.16;49.03
77092;BME280;66032;48.252;11.638;2023-05-02T11:35:26;96379.75;;;21.66;48.00
77092;BME280;66032;48.252;11.638;2023-05-02T11:37:58;96379.28;;;21.69;48.48
77092;BME280;66032;48.252;11.638;2023-05-02T11:40:26;96385.56;;;21.63;47.12
77092;BME280;66032;48.252;11.638;2023-05-02T11:42:56;96394.91;;;21.61;47.01
77092;BME280;66032;48.252;11.638;2023-05-02T11:45:34;96390.66;;;21.40;46.89
77092;BME280;66032;48.252;11.638;2023-05-02T11:48:14;96397.72;;;21.41;47.38
77092;BME280;66032;48.252;11.638;2023-05-02T11:50:49;96392.53;;;21.39;47.42
77092;BME280;66032;48.252;11.638;2023-05-02T11:53:22;96396.44;;;21.43;47.42
77092;BME280;66032;48.252;11.638;2023-05-02T11:55:55;96392.28;;;21.47;47.86
77092;BME280;66032;48.252;11.638;2023-05-02T11:58:28;96400.31;;;21.61;47.18
77092;BME280;66032;48.252;11.638;2023-05-02T12:00:56;96385.78;;;21.62;46.95
77092;BME280;66032;48.252;11.638;2023-05-02T12:03:29;96394.72;;;21.55;46.94
77092;BME280;66032;48.252;11.638;2023-05-02T12:06:12;96399.72;;;21.58;46.65
77092;BME280;66032;48.252;11.638;2023-05-02T12:08:42;96400.72;;;21.64;46.09
77092;BME280;66032;48.252;11.638;2023-05-02T12:11:13;96402.59;;;21.64;45.67
77092;BME280;66032;48.252;11.638;2023-05-02T12:13:47;96388.88;;;21.65;45.89
77092;BME280;66032;48.252;11.638;2023-05-02T12:16:15;96395.53;;;21.63;45.38
77092;BME280;66032;48.252;11.638;2023-05-02T12:18:43;96388.66;;;21.67;45.74
77092;BME280;66032;48.252;11.638;2023-05-02T12:21:11;96386.34;;;21.70;45.15
77092;BME280;66032;48.252;11.638;2023-05-02T12:23:39;96389.41;;;21.80;44.83
77092;BME280;66032;48.252;11.638;2023-05-02T12:26:22;96388.88;;;21.96;44.24
77092;BME280;66032;48.252;11.638;2023-05-02T12:28:57;96382.44;;;21.59;45.11
77092;BME280;66032;48.252;11.638;2023-05-02T12:31:25;96386.44;;;21.57;45.43
77092;BME280;66032;48.252;11.638;2023-05-02T12:33:53;96388.47;;;21.17;46.28
77092;BME280;66032;48.252;11.638;2023-05-02T12:36:24;96392.75;;;21.38;47.25
77092;BME280;66032;48.252;11.638;2023-05-02T12:38:52;96388.88;;;21.65;46.44
77092;BME280;66032;48.252;11.638;2023-05-02T12:41:36;96399.91;;;21.95;46.08
77092;BME280;66032;48.252;11.638;2023-05-02T12:44:06;96393.63;;;22.08;44.66
77092;BME280;66032;48.252;11.638;2023-05-02T12:46:34;96389.31;;;22.00;44.61
77092;BME280;66032;48.252;11.638;2023-05-02T12:49:07;96392.53;;;22.15;45.16
77092;BME280;66032;48.252;11.638;2023-05-02T12:51:36;96393.66;;;21.63;46.64
77092;BME280;66032;48.252;11.638;2023-05-02T12:54:04;96388.25;;;21.05;47.00
77092;BME280;66032;48.252;11.638;2023-05-02T12:56:39;96390.63;;;20.42;49.03
77092;BME280;66032;48.252;11.638;2023-05-02T12:59:07;96389.72;;;19.76;49.50
77092;BME280;66032;48.252;11.638;2023-05-02T13:01:35;96380.47;;;20.05;49.27
77092;BME280;66032;48.252;11.638;2023-05-02T13:04:03;96392.00;;;19.25;50.04
77092;BME280;66032;48.252;11.638;2023-05-02T13:06:31;96391.22;;;19.31;50.69
77092;BME280;66032;48.252;11.638;2023-05-02T13:08:59;96384.69;;;18.99;50.61
77092;BME280;66032;48.252;11.638;2023-05-02T13:11:26;96400.41;;;18.68;51.18
77092;BME280;66032;48.252;11.638;2023-05-02T13:13:54;96403.75;;;18.48;52.03
77092;BME280;66032;48.252;11.638;2023-05-02T13:16:21;96411.41;;;18.51;51.53
77092;BME280;66032;48.252;11.638;2023-05-02T13:18:49;96409.22;;;17.91;50.04
77092;BME280;66032;48.252;11.638;2023-05-02T13:21:16;96414.72;;;17.62;52.45
77092;BME280;66032;48.252;11.638;2023-05-02T13:23:46;96423.31;;;16.92;58.38
77092;BME280;66032;48.252;11.638;2023-05-02T13:26:13;96431.94;;;16.12;63.38
77092;BME280;66032;48.252;11.638;2023-05-02T13:28:41;96444.09;;;14.99;69.29
77092;BME280;66032;48.252;11.638;2023-05-02T13:31:08;96440.72;;;13.61;74.60
77092;BME280;66032;48.252;11.638;2023-05-02T13:33:35;96454.19;;;12.75;77.66
77092;BME280;66032;48.252;11.638;2023-05-02T13:36:03;96457.69;;;11.81;82.17
77092;BME280;66032;48.252;11.638;2023-05-02T13:38:30;96452.59;;;11.24;85.21
77092;BME280;66032;48.252;11.638;2023-05-02T13:40:58;96458.25;;;10.57;92.13
77092;BME280;66032;48.252;11.638;2023-05-02T13:43:25;96470.88;;;10.36;97.19
77092;BME280;66032;48.252;11.638;2023-05-02T13:45:53;61964.47;;;-143.42;100.00
77092;BME280;66032;48.252;11.638;2023-05-02T13:48:20;61964.47;;;-143.42;100.00
77092;BME280;66032;48.252;11.638;2023-05-02T13:50:48;61964.47;;;-143.42;100.00